イースター島 の空港の天気 - METARとTAF

マタベリ国際空港 ( SCIP / IPC ) - チリ イースター島
飛行場実況気象(Metar)
観測時間01/23 19:00 EAST (01/24 00:00 UTC)
風向・風速南東 5m/s
視程10km以上
天気現象
全天の4割程度の雲 雲底高度 610m
気温23℃
湿度83%
気圧1018hPa
METARSCIP 240000Z 13010KT 9999 SCT020 23/20 Q1018 NOSIG
過去の天気等 Google飛行場航空写真 Wunderground天気予報

過去48時間のMETAR

飛行場予報(TAF)
発表時間: 1/23 17:26 EAST (1/23 22:26 UTC)
予報対象時間: 23日19時 EAST ~ 24日19時 EAST
風向・風速南東 6m/s
視程10km以上
全天の4割程度の雲 雲底高度 610m
23日21時 EAST ~ 23日23時 EAST に徐々に
風向・風速南東 4m/s
全天の4割程度の雲 雲底高度 760m
24日1時 EAST ~ 24日8時 EAST に一時的に
風向・風速東 4m/s
視程7000m
天気現象弱いしゅう雨
全天の4割程度の雲 雲底高度 460m
全天の8割程度の雲 雲底高度 1070m
24日9時 EAST ~ 24日11時 EAST に徐々に
風向・風速東 7m/s
全天の4割程度の雲 雲底高度 610m
全天の8割程度の雲 雲底高度 1220m
24日17時 EAST ~ 24日19時 EAST に一時的に
視程7000m
天気現象弱いしゅう雨
全天の4割程度の雲 雲底高度 460m
全天の8割程度の雲 雲底高度 1070m
TAF SCIP 232226Z 2400/2500 13012KT 9999 SCT020 TN20/2410Z TX26/2420Z
BECMG 2402/2404 13007KT SCT025
TEMPO 2406/2413 10008KT 7000 -SHRA SCT015 BKN035
BECMG 2414/2416 10013KT SCT020 BKN040
TEMPO 2422/2500 7000 -SHRA SCT015 BKN035